Time;durP1;ratioP1;P1;durP2;ratioP2;P2;SDS_P1;SDS_P2;PMS_P1;PMS_P2;Temp;Humidity;BMP_temperature;BMP_pressure;BME280_temperature;BME280_humidity;BME280_pressure;Samples;Min_cycle;Max_cycle;Signal;HPM_P1;HPM_P2
2021/04/03 04:01:32;;;;;;;12.80;7.40;;;1.90;96.30;;;;;;5435961;23;20863;-78
2021/04/03 04:03:58;;;;;;;10.13;5.60;;;1.90;96.30;;;;;;4973428;28;20410;-77
2021/04/03 04:06:23;;;;;;;15.27;7.57;;;2.00;96.30;;;;;;4973449;28;20178;-78
2021/04/03 04:08:50;;;;;;;14.57;7.77;;;1.90;96.30;;;;;;4973133;28;20174;-78
2021/04/03 04:11:15;;;;;;;13.43;5.80;;;1.90;96.30;;;;;;4973263;28;20198;-78
2021/04/03 04:13:41;;;;;;;14.80;6.83;;;1.80;96.30;;;;;;4972885;28;20429;-75
2021/04/03 04:16:06;;;;;;;19.33;7.00;;;1.80;96.30;;;;;;4972103;28;20181;-75
2021/04/03 04:18:32;;;;;;;17.63;6.90;;;1.80;96.30;;;;;;4972383;28;20598;-75
2021/04/03 04:20:58;;;;;;;18.33;5.83;;;1.90;96.30;;;;;;4973412;28;20268;-75
2021/04/03 04:23:24;;;;;;;11.03;5.10;;;1.80;96.30;;;;;;4973286;28;20553;-75
2021/04/03 04:25:50;;;;;;;21.00;6.60;;;1.80;96.30;;;;;;4973325;28;20428;-75
2021/04/03 04:28:15;;;;;;;12.03;6.60;;;1.80;96.30;;;;;;4972736;28;20237;-75
2021/04/03 04:30:40;;;;;;;21.77;7.10;;;1.80;96.30;;;;;;4972983;28;20214;-76
2021/04/03 04:33:06;;;;;;;13.83;7.03;;;1.80;96.30;;;;;;4973137;28;20200;-75
2021/04/03 04:35:32;;;;;;;16.20;6.00;;;1.80;96.30;;;;;;4973175;28;20181;-75
2021/04/03 04:37:57;;;;;;;16.50;7.93;;;1.80;96.30;;;;;;4972595;28;20170;-75
2021/04/03 04:40:23;;;;;;;17.53;6.90;;;1.80;96.30;;;;;;4972908;28;20237;-75
2021/04/03 04:42:50;;;;;;;30.87;8.63;;;1.80;96.30;;;;;;4973248;28;20642;-75
2021/04/03 04:45:16;;;;;;;16.83;7.03;;;1.80;96.30;;;;;;4973197;28;20175;-75
2021/04/03 04:47:41;;;;;;;17.70;6.00;;;1.80;96.30;;;;;;4972628;28;20424;-75
2021/04/03 04:50:09;;;;;;;18.87;5.40;;;1.80;96.30;;;;;;4973127;28;20212;-75
2021/04/03 04:52:35;;;;;;;22.40;8.77;;;1.80;96.30;;;;;;4973086;28;20202;-75
2021/04/03 04:55:01;;;;;;;12.90;4.43;;;1.80;96.30;;;;;;4973164;28;20456;-75
2021/04/03 04:57:26;;;;;;;12.87;6.00;;;1.80;96.30;;;;;;4971623;28;20181;-76
2021/04/03 04:59:52;;;;;;;15.40;7.10;;;1.70;96.30;;;;;;4972807;28;20777;-76
2021/04/03 05:02:18;;;;;;;20.80;7.83;;;1.70;96.30;;;;;;4972350;28;20236;-76
2021/04/03 05:04:43;;;;;;;13.27;7.03;;;1.70;96.30;;;;;;4972745;28;20410;-75
2021/04/03 05:07:09;;;;;;;10.43;4.50;;;1.70;96.30;;;;;;4972200;28;20657;-75
2021/04/03 05:09:34;;;;;;;13.17;6.10;;;1.70;96.30;;;;;;4971414;28;20198;-76
2021/04/03 05:12:03;;;;;;;22.27;6.77;;;1.70;96.30;;;;;;4972522;28;20662;-76
2021/04/03 05:14:30;;;;;;;16.90;6.97;;;1.70;96.30;;;;;;4972700;28;20257;-75
2021/04/03 05:16:55;;;;;;;12.43;5.70;;;1.70;96.30;;;;;;4972166;28;20401;-75
2021/04/03 05:19:21;;;;;;;22.30;7.43;;;1.70;96.30;;;;;;4972296;28;20413;-75
2021/04/03 05:21:46;;;;;;;10.43;6.10;;;1.70;96.30;;;;;;4972866;28;20210;-75
2021/04/03 05:24:12;;;;;;;20.50;7.00;;;1.70;96.30;;;;;;4972663;28;20631;-75
2021/04/03 05:26:37;;;;;;;10.93;6.40;;;1.70;96.30;;;;;;4972374;28;20539;-75
2021/04/03 05:29:03;;;;;;;20.90;7.40;;;1.60;96.30;;;;;;4971735;28;20190;-76
2021/04/03 05:31:28;;;;;;;15.03;6.73;;;1.70;96.30;;;;;;4975957;28;20197;-75
2021/04/03 05:33:54;;;;;;;19.30;8.50;;;1.70;96.30;;;;;;4976072;28;20171;-75
2021/04/03 05:36:19;;;;;;;14.53;7.13;;;1.70;96.30;;;;;;4975916;28;20188;-75
2021/04/03 05:38:45;;;;;;;21.20;7.43;;;1.60;96.30;;;;;;4975132;28;20201;-76
2021/04/03 05:41:11;;;;;;;13.90;6.53;;;1.60;96.30;;;;;;4974965;28;20191;-75
2021/04/03 05:43:38;;;;;;;10.27;6.30;;;1.60;96.30;;;;;;4975830;28;20185;-75
2021/04/03 05:46:03;;;;;;;12.83;6.60;;;1.60;96.30;;;;;;4975489;28;20182;-75
2021/04/03 05:48:29;;;;;;;17.87;6.27;;;1.60;96.30;;;;;;4975238;28;20493;-75
2021/04/03 05:50:57;;;;;;;11.30;5.33;;;1.60;96.30;;;;;;4974311;28;20224;-75
2021/04/03 05:53:23;;;;;;;14.10;5.53;;;1.60;96.30;;;;;;4975672;28;20654;-75
2021/04/03 05:55:56;;;;;;;14.33;6.67;;;1.70;96.30;;;;;;4974183;28;20417;-75
2021/04/03 05:58:22;;;;;;;9.13;5.40;;;1.70;96.30;;;;;;4975074;28;20174;-75
2021/04/03 06:00:50;;;;;;;12.73;7.27;;;1.70;96.30;;;;;;4975238;28;20449;-77
2021/04/03 06:03:16;;;;;;;15.83;6.83;;;1.60;96.30;;;;;;4974460;28;20555;-76
2021/04/03 06:05:47;;;;;;;9.10;4.50;;;1.60;96.30;;;;;;4975180;28;20532;-75
2021/04/03 06:08:13;;;;;;;17.80;7.30;;;1.60;96.30;;;;;;4974623;28;20197;-75
2021/04/03 06:10:38;;;;;;;7.83;5.07;;;1.60;96.30;;;;;;4973384;28;20857;-75
2021/04/03 06:13:16;;;;;;;17.07;7.00;;;1.60;96.30;;;;;;4974992;28;20182;-75
2021/04/03 06:15:42;;;;;;;11.70;5.50;;;1.70;96.30;;;;;;4975324;28;20233;-75
2021/04/03 06:18:10;;;;;;;14.60;7.07;;;1.70;96.30;;;;;;4974703;28;20413;-75
2021/04/03 06:20:38;;;;;;;10.63;5.63;;;1.70;96.30;;;;;;4975135;28;20195;-75
2021/04/03 06:23:05;;;;;;;18.03;6.20;;;1.80;96.30;;;;;;4974965;28;20405;-75
2021/04/03 06:25:31;;;;;;;19.00;7.33;;;1.80;96.30;;;;;;4974914;28;20425;-76
2021/04/03 06:28:09;;;;;;;17.93;7.07;;;1.80;96.30;;;;;;4973907;28;20418;-75
2021/04/03 06:30:37;;;;;;;12.37;6.40;;;1.90;96.30;;;;;;4974612;28;20217;-75
2021/04/03 06:33:20;;;;;;;8.33;5.80;;;2.00;96.30;;;;;;4974829;28;20468;-76
2021/04/03 06:36:21;;;;;;;12.80;6.30;;;2.00;96.30;;;;;;4974513;28;20409;-75
2021/04/03 06:38:47;;;;;;;13.23;6.97;;;2.10;96.30;;;;;;4974159;28;20448;-77
2021/04/03 06:41:20;;;;;;;12.70;6.33;;;2.10;96.30;;;;;;4974354;28;20465;-75
2021/04/03 06:44:07;;;;;;;11.50;6.37;;;2.20;96.30;;;;;;4970539;28;20178;-75
2021/04/03 06:46:35;;;;;;;11.07;6.23;;;2.20;96.30;;;;;;4974306;28;20469;-75
2021/04/03 06:49:02;;;;;;;12.47;6.40;;;2.20;96.30;;;;;;4973661;28;20422;-75
2021/04/03 06:51:28;;;;;;;18.97;6.40;;;2.20;96.30;;;;;;4972987;28;20469;-75
2021/04/03 06:53:56;;;;;;;12.40;4.80;;;2.20;96.30;;;;;;4974372;28;20409;-75
2021/04/03 06:56:23;;;;;;;8.87;5.63;;;2.30;96.30;;;;;;4974307;28;20414;-75
2021/04/03 06:58:59;;;;;;;10.40;6.83;;;2.20;96.30;;;;;;4973767;28;20988;-75
2021/04/03 07:01:29;;;;;;;13.20;5.40;;;2.30;96.30;;;;;;4973880;28;20461;-75
2021/04/03 07:03:57;;;;;;;12.57;5.27;;;2.30;96.30;;;;;;4973310;28;20426;-75
2021/04/03 07:06:24;;;;;;;17.70;6.80;;;2.30;96.30;;;;;;4973393;28;20421;-75
2021/04/03 07:08:51;;;;;;;17.13;6.20;;;2.30;96.30;;;;;;4972951;28;20420;-75
2021/04/03 07:11:17;;;;;;;17.80;5.80;;;2.40;96.30;;;;;;4973181;28;20558;-76
2021/04/03 07:13:47;;;;;;;9.47;4.63;;;2.40;96.30;;;;;;4971992;28;20406;-77
2021/04/03 07:16:12;;;;;;;19.47;5.80;;;2.40;96.30;;;;;;4981464;28;20413;-78
2021/04/03 07:18:39;;;;;;;13.63;6.20;;;2.60;96.30;;;;;;4987956;28;20421;-76
2021/04/03 07:21:08;;;;;;;12.80;5.57;;;2.70;96.30;;;;;;4973354;28;20291;-76
2021/04/03 07:23:35;;;;;;;16.50;6.53;;;2.60;96.30;;;;;;4973599;28;20548;-76
2021/04/03 07:26:02;;;;;;;14.57;8.37;;;2.60;96.30;;;;;;4972818;28;20909;-76
2021/04/03 07:28:48;;;;;;;11.57;4.70;;;2.60;96.30;;;;;;4960871;28;20426;-76
2021/04/03 07:31:51;;;;;;;19.37;6.17;;;2.60;96.30;;;;;;4953501;28;20470;-76
2021/04/03 07:34:17;;;;;;;12.53;5.40;;;2.50;96.30;;;;;;4954050;28;20399;-76
2021/04/03 07:36:43;;;;;;;16.80;6.23;;;2.60;96.30;;;;;;4958704;28;20414;-76
2021/04/03 07:39:37;;;;;;;9.63;4.97;;;2.70;96.30;;;;;;4972784;28;20244;-76
2021/04/03 07:42:04;;;;;;;9.80;5.00;;;2.60;96.30;;;;;;4973121;28;20428;-76
2021/04/03 07:44:37;;;;;;;14.23;6.03;;;2.50;96.30;;;;;;4972338;28;20780;-77
2021/04/03 07:47:21;;;;;;;10.80;5.40;;;2.60;96.30;;;;;;4971690;28;20402;-76
2021/04/03 07:49:47;;;;;;;10.50;4.67;;;2.60;96.30;;;;;;4973077;28;20448;-76
2021/04/03 07:52:13;;;;;;;8.20;4.50;;;2.60;96.30;;;;;;4970345;28;20848;-75
2021/04/03 07:54:39;;;;;;;15.10;5.20;;;2.70;96.30;;;;;;4973091;28;20421;-76
2021/04/03 07:57:09;;;;;;;15.70;5.47;;;2.70;96.30;;;;;;4972371;28;20174;-76
2021/04/03 07:59:44;;;;;;;10.50;4.97;;;2.80;96.30;;;;;;4972717;28;20996;-76
2021/04/03 08:02:20;;;;;;;12.43;5.10;;;2.70;96.30;;;;;;4955013;28;536285;-76
2021/04/03 08:04:46;;;;;;;14.50;5.27;;;2.60;96.30;;;;;;4973555;28;20444;-77
2021/04/03 08:07:13;;;;;;;16.07;5.53;;;2.50;96.30;;;;;;4972839;28;20460;-77
2021/04/03 08:09:38;;;;;;;11.53;5.13;;;2.50;96.30;;;;;;4973077;28;20288;-77
2021/04/03 08:12:05;;;;;;;11.40;5.73;;;2.60;96.30;;;;;;4973055;28;20520;-77
2021/04/03 08:14:33;;;;;;;13.60;5.23;;;2.40;96.30;;;;;;4973413;28;20177;-76
2021/04/03 08:17:00;;;;;;;12.90;5.90;;;2.40;96.30;;;;;;4970906;28;20441;-77
2021/04/03 08:19:27;;;;;;;10.90;5.83;;;2.40;96.30;;;;;;4973225;28;20909;-76
2021/04/03 08:21:53;;;;;;;14.63;5.67;;;2.50;96.30;;;;;;4973127;28;20533;-76
2021/04/03 08:24:20;;;;;;;14.80;5.97;;;2.60;96.30;;;;;;4973103;28;20500;-76
2021/04/03 08:26:47;;;;;;;12.67;5.50;;;2.50;96.30;;;;;;4973218;28;20170;-76
2021/04/03 08:29:34;;;;;;;15.07;5.30;;;2.50;96.30;;;;;;4966537;28;20428;-77
2021/04/03 08:32:02;;;;;;;16.70;5.37;;;2.40;96.30;;;;;;4973472;28;20438;-77
2021/04/03 08:34:28;;;;;;;10.33;6.00;;;2.50;96.30;;;;;;4972200;28;20516;-77
2021/04/03 08:36:55;;;;;;;8.60;5.10;;;2.50;96.30;;;;;;4971033;28;20472;-77
2021/04/03 08:39:23;;;;;;;16.17;5.53;;;2.60;96.30;;;;;;4977566;28;20449;-76
2021/04/03 08:41:55;;;;;;;19.43;5.70;;;2.60;96.30;;;;;;4974178;28;20903;-76
2021/04/03 08:44:31;;;;;;;15.07;5.83;;;2.50;96.30;;;;;;4958565;28;20425;-76
2021/04/03 08:47:03;;;;;;;13.00;5.13;;;2.40;96.30;;;;;;4978156;28;20472;-76
2021/04/03 08:49:34;;;;;;;21.43;5.80;;;2.50;96.30;;;;;;4971685;28;20504;-76
2021/04/03 08:52:00;;;;;;;18.47;5.83;;;2.60;96.30;;;;;;4969622;28;20930;-76
2021/04/03 08:54:25;;;;;;;22.60;6.47;;;2.70;96.30;;;;;;4972940;28;20428;-75
2021/04/03 08:56:51;;;;;;;18.20;6.70;;;2.60;96.30;;;;;;4972891;28;20182;-76
2021/04/03 08:59:22;;;;;;;9.43;5.33;;;2.50;96.30;;;;;;4991397;28;20208;-76
2021/04/03 09:01:50;;;;;;;13.83;6.60;;;2.50;96.30;;;;;;4989753;28;20707;-76
2021/04/03 09:04:16;;;;;;;15.10;6.23;;;2.70;96.30;;;;;;4971323;28;20902;-75
2021/04/03 09:06:55;;;;;;;12.60;7.03;;;3.00;96.30;;;;;;4976355;28;20909;-77
2021/04/03 09:09:22;;;;;;;17.53;7.07;;;3.00;96.30;;;;;;4970929;28;20421;-76
2021/04/03 09:12:02;;;;;;;22.63;8.90;;;3.00;96.30;;;;;;4973244;28;20464;-77
2021/04/03 09:14:32;;;;;;;16.03;9.10;;;3.20;96.30;;;;;;4974808;28;20432;-76
2021/04/03 09:16:59;;;;;;;16.93;10.20;;;3.40;96.30;;;;;;4972078;28;20484;-77
2021/04/03 09:19:35;;;;;;;18.77;10.53;;;3.40;96.30;;;;;;4974390;28;20472;-77
2021/04/03 09:22:02;;;;;;;16.20;7.63;;;3.20;96.30;;;;;;4974289;28;20483;-76
2021/04/03 09:24:39;;;;;;;13.53;6.80;;;2.90;96.30;;;;;;4972375;28;20806;-76
2021/04/03 09:27:13;;;;;;;7.77;5.00;;;2.70;96.30;;;;;;4972114;28;20532;-77
2021/04/03 09:29:40;;;;;;;14.20;5.40;;;2.50;96.30;;;;;;4975357;28;20556;-75
2021/04/03 09:32:11;;;;;;;16.43;6.60;;;2.70;96.30;;;;;;4976177;28;20457;-76
2021/04/03 09:34:37;;;;;;;9.17;4.53;;;3.00;96.30;;;;;;4977554;28;20449;-76
2021/04/03 09:37:22;;;;;;;8.73;5.13;;;3.50;96.30;;;;;;4975562;28;20790;-76
2021/04/03 09:39:53;;;;;;;11.10;5.47;;;3.40;96.30;;;;;;4976036;28;20897;-76
2021/04/03 09:42:21;;;;;;;11.77;6.17;;;3.10;96.30;;;;;;4990936;28;21016;-76
2021/04/03 09:44:48;;;;;;;9.27;4.70;;;2.80;96.30;;;;;;4976034;28;20446;-76
2021/04/03 09:47:14;;;;;;;6.80;4.70;;;2.80;96.30;;;;;;4997022;28;20436;-77
2021/04/03 09:49:41;;;;;;;12.90;5.57;;;2.70;96.30;;;;;;4976035;28;20957;-77
2021/04/03 09:52:08;;;;;;;10.00;5.20;;;2.50;96.30;;;;;;4974571;28;20445;-78
2021/04/03 09:54:34;;;;;;;19.73;6.13;;;2.60;96.30;;;;;;4990915;28;20437;-77
2021/04/03 09:57:03;;;;;;;9.30;5.47;;;2.90;96.30;;;;;;5009532;28;20425;-78
2021/04/03 09:59:29;;;;;;;13.60;5.93;;;3.10;96.30;;;;;;4976305;28;20186;-77
2021/04/03 10:01:55;;;;;;;16.47;5.70;;;3.30;96.30;;;;;;4980959;28;20515;-77
2021/04/03 10:04:21;;;;;;;16.03;5.93;;;3.50;96.30;;;;;;4975540;28;20512;-78
2021/04/03 10:06:46;;;;;;;12.57;6.00;;;3.70;96.30;;;;;;4971386;28;20518;-77
2021/04/03 10:09:12;;;;;;;21.17;6.97;;;4.20;96.30;;;;;;4989334;28;20194;-77
2021/04/03 10:11:37;;;;;;;12.07;5.70;;;5.10;96.30;;;;;;4974688;28;20225;-78
2021/04/03 10:14:03;;;;;;;16.37;4.50;;;6.20;96.30;;;;;;4973454;28;20174;-77
2021/04/03 10:16:29;;;;;;;14.77;5.30;;;6.60;96.30;;;;;;4976808;28;20171;-79
2021/04/03 10:18:54;;;;;;;14.80;5.17;;;7.30;96.30;;;;;;4974086;28;20188;-78
2021/04/03 10:21:21;;;;;;;7.17;4.70;;;7.30;96.30;;;;;;4974028;28;20329;-77
2021/04/03 10:23:47;;;;;;;7.27;3.70;;;7.90;96.30;;;;;;4975638;28;20185;-76
2021/04/03 10:26:12;;;;;;;12.53;4.03;;;7.90;96.30;;;;;;4973915;28;20422;-77
2021/04/03 10:28:38;;;;;;;9.97;3.17;;;7.90;96.30;;;;;;4974012;28;20256;-77
2021/04/03 10:31:03;;;;;;;11.07;4.10;;;7.80;96.30;;;;;;4973261;28;20265;-78
2021/04/03 10:33:29;;;;;;;6.40;3.60;;;7.30;96.30;;;;;;4974612;28;20253;-77
2021/04/03 10:35:55;;;;;;;7.70;3.37;;;7.50;96.30;;;;;;4975073;28;20274;-77
2021/04/03 10:38:21;;;;;;;7.80;2.93;;;7.40;96.30;;;;;;4974492;28;20178;-77
2021/04/03 10:40:46;;;;;;;7.90;3.13;;;7.10;96.30;;;;;;4975048;28;20437;-77
2021/04/03 10:43:12;;;;;;;4.90;2.10;;;7.20;96.30;;;;;;4975047;28;20174;-77
2021/04/03 10:45:38;;;;;;;7.33;2.70;;;7.90;96.30;;;;;;4973688;28;20766;-77
2021/04/03 10:48:04;;;;;;;4.03;2.00;;;7.60;96.30;;;;;;4973036;28;20542;-77
2021/04/03 10:50:29;;;;;;;5.40;2.60;;;7.30;96.30;;;;;;4972798;28;20218;-77
2021/04/03 10:52:55;;;;;;;11.17;3.43;;;6.90;96.30;;;;;;4965930;28;20183;-76
2021/04/03 10:55:21;;;;;;;8.23;3.43;;;6.60;96.30;;;;;;4974581;28;20178;-77
2021/04/03 10:57:46;;;;;;;4.53;2.20;;;6.30;96.30;;;;;;4967379;28;20187;-79
2021/04/03 11:00:12;;;;;;;12.43;3.00;;;6.70;96.30;;;;;;4973331;28;20272;-77
2021/04/03 11:02:38;;;;;;;9.17;2.50;;;7.70;96.30;;;;;;4975162;28;20190;-76
2021/04/03 11:05:04;;;;;;;9.70;3.27;;;8.50;96.30;;;;;;4977364;28;20418;-76
2021/04/03 11:07:29;;;;;;;3.73;2.40;;;9.20;96.30;;;;;;4966397;28;20170;-77
2021/04/03 11:09:54;;;;;;;5.77;2.57;;;9.00;91.60;;;;;;4975956;28;20465;-78
2021/04/03 11:12:20;;;;;;;5.40;2.53;;;8.90;95.90;;;;;;4973707;28;20202;-76
2021/04/03 11:14:46;;;;;;;5.37;2.40;;;9.00;95.90;;;;;;4971911;28;20245;-77
2021/04/03 11:17:11;;;;;;;6.60;2.43;;;8.20;93.30;;;;;;4970721;28;20174;-77
2021/04/03 11:19:37;;;;;;;6.57;1.83;;;7.40;92.40;;;;;;4973456;28;20209;-79
2021/04/03 11:22:03;;;;;;;6.70;2.90;;;6.80;94.20;;;;;;4973457;28;20276;-76
2021/04/03 11:24:29;;;;;;;5.67;2.10;;;6.60;96.30;;;;;;4973582;28;20178;-76
2021/04/03 11:26:54;;;;;;;4.70;2.10;;;6.30;95.70;;;;;;4972828;28;20480;-77
2021/04/03 11:29:20;;;;;;;5.50;1.93;;;5.90;96.30;;;;;;4971030;28;20188;-76
2021/04/03 11:31:45;;;;;;;4.40;1.80;;;5.50;96.30;;;;;;4970328;28;20208;-77
2021/04/03 11:34:11;;;;;;;8.10;2.20;;;5.30;96.30;;;;;;4973606;28;20665;-77
2021/04/03 11:36:36;;;;;;;5.67;2.40;;;5.30;96.30;;;;;;4972481;28;20174;-77
2021/04/03 11:39:04;;;;;;;7.80;2.60;;;5.50;96.30;;;;;;4973008;28;20265;-78
2021/04/03 11:41:30;;;;;;;6.50;2.10;;;5.60;96.30;;;;;;4971837;28;20260;-78
2021/04/03 11:43:56;;;;;;;5.60;1.90;;;5.40;96.30;;;;;;4973600;28;20418;-78
2021/04/03 11:46:22;;;;;;;6.60;2.33;;;5.40;96.30;;;;;;4973794;28;20483;-78
2021/04/03 11:48:47;;;;;;;4.10;1.73;;;4.90;96.30;;;;;;4973194;28;20932;-77
2021/04/03 11:51:13;;;;;;;4.10;1.90;;;4.50;96.30;;;;;;4972080;28;20206;-76
2021/04/03 11:53:39;;;;;;;7.20;2.30;;;4.70;96.30;;;;;;4972164;28;20257;-78
2021/04/03 11:56:04;;;;;;;7.00;1.90;;;4.90;96.30;;;;;;4973702;28;20264;-78
2021/04/03 11:58:30;;;;;;;5.37;1.93;;;5.20;96.30;;;;;;4973123;28;20217;-77
2021/04/03 12:00:55;;;;;;;7.33;2.03;;;5.40;96.30;;;;;;4973149;28;20233;-78
2021/04/03 12:03:21;;;;;;;4.73;1.90;;;6.40;96.30;;;;;;4973567;28;20178;-78
2021/04/03 12:05:46;;;;;;;5.00;2.00;;;7.60;96.30;;;;;;4973423;28;20182;-79
2021/04/03 12:08:12;;;;;;;7.87;1.80;;;7.90;96.30;;;;;;4972674;28;20201;-77
2021/04/03 12:10:38;;;;;;;6.70;1.90;;;7.50;96.30;;;;;;4973321;28;20584;-77
2021/04/03 12:13:03;;;;;;;10.03;1.27;;;7.00;96.30;;;;;;4971823;28;20187;-78
2021/04/03 12:15:30;;;;;;;6.63;1.30;;;6.80;94.00;;;;;;4972126;28;20257;-78
2021/04/03 12:17:56;;;;;;;4.13;1.40;;;6.60;89.30;;;;;;4971695;28;20186;-78
2021/04/03 12:20:21;;;;;;;5.03;1.10;;;6.50;90.60;;;;;;4972508;28;20417;-77
2021/04/03 12:22:47;;;;;;;2.27;0.80;;;6.60;89.70;;;;;;4972363;28;20638;-77
2021/04/03 12:25:13;;;;;;;2.00;1.03;;;6.70;88.80;;;;;;4973266;28;20190;-77
2021/04/03 12:27:39;;;;;;;3.40;1.10;;;6.40;88.30;;;;;;4972681;28;20186;-78
2021/04/03 12:30:05;;;;;;;1.23;0.70;;;5.90;88.20;;;;;;4971692;28;20465;-77
2021/04/03 12:32:31;;;;;;;1.73;0.60;;;5.80;88.70;;;;;;4972757;28;20265;-77
2021/04/03 12:34:57;;;;;;;10.50;1.17;;;5.60;88.00;;;;;;4971667;28;20418;-77
2021/04/03 12:37:23;;;;;;;3.53;1.47;;;5.80;90.70;;;;;;4972436;28;20249;-77
2021/04/03 12:39:48;;;;;;;1.57;1.00;;;6.90;87.40;;;;;;4975075;28;20610;-77
2021/04/03 12:42:14;;;;;;;6.77;1.30;;;6.90;84.70;;;;;;4977113;28;20194;-77
2021/04/03 12:44:39;;;;;;;1.47;0.70;;;6.40;84.40;;;;;;4977038;28;20189;-79
2021/04/03 12:47:05;;;;;;;1.30;0.70;;;5.90;87.20;;;;;;4975850;28;20189;-77
2021/04/03 12:49:31;;;;;;;1.77;0.87;;;5.60;87.50;;;;;;4976641;28;20197;-78
2021/04/03 12:51:57;;;;;;;1.63;0.80;;;5.40;87.20;;;;;;4976794;28;20230;-77
2021/04/03 12:54:24;;;;;;;3.70;0.90;;;5.40;86.70;;;;;;4976620;28;20437;-77
2021/04/03 12:56:50;;;;;;;2.80;1.07;;;6.30;88.20;;;;;;4976537;28;20167;-78
2021/04/03 12:59:16;;;;;;;2.57;1.40;;;6.50;83.50;;;;;;4976285;28;20414;-77
2021/04/03 13:01:42;;;;;;;2.00;1.00;;;6.50;85.70;;;;;;4975377;28;20488;-78
2021/04/03 13:04:08;;;;;;;1.53;0.90;;;6.80;86.50;;;;;;4976702;28;20222;-77
2021/04/03 13:06:33;;;;;;;2.37;1.00;;;6.40;85.60;;;;;;4976682;28;20178;-77
2021/04/03 13:08:59;;;;;;;1.63;1.07;;;6.20;89.20;;;;;;4975952;28;20428;-77
2021/04/03 13:11:24;;;;;;;2.90;0.77;;;5.90;87.00;;;;;;4976395;28;20325;-77
2021/04/03 13:13:50;;;;;;;3.97;0.93;;;6.10;87.60;;;;;;4975263;28;20269;-77
2021/04/03 13:16:16;;;;;;;2.50;1.37;;;6.10;86.70;;;;;;4975453;28;20204;-77
2021/04/03 13:18:41;;;;;;;2.47;1.30;;;6.30;87.40;;;;;;4975996;28;20657;-77
2021/04/03 13:21:08;;;;;;;2.10;1.10;;;6.20;88.20;;;;;;4976392;28;20277;-77
2021/04/03 13:23:34;;;;;;;2.70;1.30;;;6.10;88.40;;;;;;4976453;28;20174;-77
2021/04/03 13:25:59;;;;;;;5.80;1.77;;;5.90;89.10;;;;;;4976413;28;20775;-77
2021/04/03 13:28:25;;;;;;;4.70;1.20;;;5.80;89.30;;;;;;4974220;28;20228;-77
2021/04/03 13:30:51;;;;;;;3.10;1.10;;;5.80;90.10;;;;;;4975283;28;20316;-77
2021/04/03 13:33:16;;;;;;;5.40;1.30;;;6.40;87.40;;;;;;4976262;28;20425;-77
2021/04/03 13:35:42;;;;;;;3.87;1.03;;;6.50;85.60;;;;;;4976061;28;20600;-77
2021/04/03 13:38:07;;;;;;;3.70;1.00;;;6.40;85.90;;;;;;4975380;28;20186;-77
2021/04/03 13:40:33;;;;;;;1.50;1.17;;;6.10;85.20;;;;;;4976034;28;20202;-77
2021/04/03 13:42:58;;;;;;;3.77;1.10;;;5.90;86.60;;;;;;4975973;28;20697;-77
2021/04/03 13:45:24;;;;;;;2.10;1.33;;;5.60;87.10;;;;;;4976005;28;20186;-77
2021/04/03 13:47:49;;;;;;;2.73;1.10;;;5.40;87.80;;;;;;4975169;28;20174;-77
2021/04/03 13:50:15;;;;;;;3.40;1.40;;;5.20;88.80;;;;;;4974848;28;20199;-77
2021/04/03 13:52:40;;;;;;;2.20;1.20;;;5.30;89.70;;;;;;4975893;28;20178;-77
2021/04/03 13:55:06;;;;;;;3.33;1.40;;;5.20;89.60;;;;;;4976144;28;20174;-77
2021/04/03 13:57:32;;;;;;;2.17;1.27;;;5.20;87.10;;;;;;4973736;28;20175;-77
2021/04/03 13:59:58;;;;;;;2.50;1.20;;;5.30;88.30;;;;;;4974429;28;20509;-76
2021/04/03 14:02:24;;;;;;;2.70;1.10;;;5.70;86.90;;;;;;4975566;28;20205;-76
2021/04/03 14:04:50;;;;;;;4.37;1.10;;;6.20;85.70;;;;;;4975630;28;20445;-77
2021/04/03 14:07:15;;;;;;;2.30;1.03;;;6.50;84.90;;;;;;4974521;28;20178;-77
2021/04/03 14:09:41;;;;;;;2.80;1.10;;;6.30;84.50;;;;;;4975519;28;20209;-76
2021/04/03 14:12:08;;;;;;;1.50;0.93;;;6.00;84.70;;;;;;4975466;28;20285;-76
2021/04/03 14:14:33;;;;;;;5.33;1.33;;;5.70;84.20;;;;;;4975379;28;20417;-76
2021/04/03 14:16:59;;;;;;;2.37;1.20;;;5.60;86.20;;;;;;4974907;28;20406;-77
2021/04/03 14:19:24;;;;;;;2.37;1.00;;;6.30;86.10;;;;;;4975240;28;20561;-76
2021/04/03 14:21:50;;;;;;;1.70;1.10;;;6.30;83.50;;;;;;4975336;28;20194;-77
2021/04/03 14:24:15;;;;;;;2.17;1.00;;;6.10;84.70;;;;;;4975488;28;20249;-77
2021/04/03 14:26:41;;;;;;;1.73;1.00;;;6.00;83.80;;;;;;4975304;28;20186;-76
2021/04/03 14:29:06;;;;;;;2.70;1.23;;;5.90;82.50;;;;;;4974748;28;20174;-76
2021/04/03 14:31:33;;;;;;;4.93;1.27;;;5.70;82.40;;;;;;4975350;28;20205;-76
2021/04/03 14:33:58;;;;;;;4.40;1.00;;;5.50;82.30;;;;;;4975373;28;20253;-76
2021/04/03 14:36:24;;;;;;;1.93;1.27;;;5.30;82.40;;;;;;4973917;28;20501;-76
2021/04/03 14:38:49;;;;;;;1.90;0.80;;;5.10;84.10;;;;;;4974277;28;20179;-76
2021/04/03 14:41:15;;;;;;;2.00;0.97;;;5.00;84.10;;;;;;4975093;28;20206;-76
2021/04/03 14:43:40;;;;;;;1.10;0.70;;;5.10;83.10;;;;;;4974755;28;20174;-76
2021/04/03 14:46:08;;;;;;;2.00;1.17;;;5.30;83.90;;;;;;4975134;28;20182;-76
2021/04/03 14:48:34;;;;;;;1.37;0.90;;;5.40;84.30;;;;;;4974428;28;20261;-76
2021/04/03 14:50:59;;;;;;;2.70;0.90;;;5.50;85.70;;;;;;4974776;28;20929;-76
2021/04/03 14:53:24;;;;;;;1.30;0.73;;;5.60;81.50;;;;;;4975082;28;20238;-77
2021/04/03 14:55:50;;;;;;;1.63;0.93;;;5.60;82.80;;;;;;4975079;28;20237;-77
2021/04/03 14:58:17;;;;;;;1.43;1.00;;;5.60;81.30;;;;;;4974340;28;20186;-76
2021/04/03 15:00:43;;;;;;;2.03;0.80;;;5.60;80.20;;;;;;4974529;28;20246;-76
2021/04/03 15:03:08;;;;;;;1.60;1.20;;;6.00;79.70;;;;;;4972413;28;20528;-76
2021/04/03 15:05:34;;;;;;;8.03;0.83;;;6.50;80.30;;;;;;4973380;28;20658;-77
2021/04/03 15:07:59;;;;;;;3.43;0.80;;;6.50;77.80;;;;;;4972664;28;20182;-77
2021/04/03 15:10:25;;;;;;;1.67;1.10;;;6.20;77.00;;;;;;4974575;28;20198;-76
2021/04/03 15:12:50;;;;;;;2.57;0.93;;;5.90;80.50;;;;;;4974192;28;20180;-77
2021/04/03 15:15:16;;;;;;;1.40;0.83;;;5.80;81.60;;;;;;4974318;28;20174;-77
2021/04/03 15:17:42;;;;;;;1.40;0.70;;;5.60;80.00;;;;;;4973562;28;20656;-76
2021/04/03 15:20:08;;;;;;;1.50;1.27;;;5.30;79.90;;;;;;4974389;28;20184;-77
2021/04/03 15:22:33;;;;;;;1.30;0.80;;;5.40;82.20;;;;;;4974368;28;20430;-77
2021/04/03 15:24:59;;;;;;;4.57;1.00;;;5.40;80.50;;;;;;4973835;28;20755;-76
2021/04/03 15:27:24;;;;;;;3.13;1.10;;;5.30;79.90;;;;;;4972352;28;20362;-76
2021/04/03 15:29:52;;;;;;;5.00;1.20;;;5.20;82.00;;;;;;4973799;28;20248;-76
2021/04/03 15:32:17;;;;;;;2.90;1.00;;;5.10;80.70;;;;;;4974108;28;20189;-76
2021/04/03 15:34:43;;;;;;;2.30;0.70;;;5.10;80.70;;;;;;4972714;28;20449;-76
2021/04/03 15:37:08;;;;;;;1.13;0.80;;;5.00;80.80;;;;;;4972214;28;20270;-76
2021/04/03 15:39:34;;;;;;;1.10;0.63;;;5.10;83.00;;;;;;4974000;28;20194;-76
2021/04/03 15:41:59;;;;;;;4.27;0.90;;;5.10;82.60;;;;;;4973899;28;20265;-76
2021/04/03 15:44:24;;;;;;;3.00;0.93;;;5.00;81.70;;;;;;4973890;28;20634;-76
2021/04/03 15:46:50;;;;;;;0.90;0.60;;;5.00;83.50;;;;;;4973724;28;20213;-76
2021/04/03 15:49:16;;;;;;;2.83;0.80;;;5.00;82.40;;;;;;4973208;28;20174;-76
2021/04/03 15:51:41;;;;;;;5.37;1.07;;;5.00;82.30;;;;;;4973790;28;20269;-76
2021/04/03 15:54:07;;;;;;;1.77;0.90;;;5.20;82.80;;;;;;4974010;28;20643;-76
2021/04/03 15:56:33;;;;;;;2.70;0.90;;;5.70;83.10;;;;;;4973539;28;20220;-76
2021/04/03 15:58:59;;;;;;;4.10;1.00;;;6.10;81.70;;;;;;4973218;28;20185;-77
2021/04/03 16:01:25;;;;;;;2.20;1.00;;;6.50;83.00;;;;;;4973379;28;20445;-77
2021/04/03 16:03:51;;;;;;;2.03;0.80;;;6.60;80.20;;;;;;4973367;28;20187;-77
2021/04/03 16:06:16;;;;;;;1.23;0.87;;;6.40;79.80;;;;;;4972440;28;20777;-77
2021/04/03 16:08:42;;;;;;;2.13;0.80;;;6.40;79.70;;;;;;4971662;28;20897;-77
2021/04/03 16:11:07;;;;;;;1.40;1.07;;;6.20;77.10;;;;;;4973348;28;20281;-77
2021/04/03 16:13:33;;;;;;;1.33;0.60;;;5.90;77.40;;;;;;4973105;28;20644;-77
2021/04/03 16:15:59;;;;;;;1.53;0.97;;;5.70;78.10;;;;;;4973701;28;20170;-77
2021/04/03 16:18:25;;;;;;;1.40;0.73;;;5.40;78.90;;;;;;4972911;28;20175;-77
2021/04/03 16:20:51;;;;;;;1.77;0.90;;;5.20;81.00;;;;;;4973322;28;20811;-77
2021/04/03 16:23:16;;;;;;;1.07;0.67;;;5.00;81.50;;;;;;4973138;28;20638;-77
2021/04/03 16:25:42;;;;;;;5.03;1.20;;;4.90;80.70;;;;;;4973183;28;20176;-77
2021/04/03 16:28:08;;;;;;;1.40;0.70;;;4.80;82.60;;;;;;4972726;28;20173;-77
2021/04/03 16:30:34;;;;;;;4.97;1.73;;;4.70;82.60;;;;;;4973192;28;20218;-77
2021/04/03 16:33:00;;;;;;;2.97;0.77;;;4.70;81.80;;;;;;4973414;28;20266;-77
2021/04/03 16:35:26;;;;;;;2.97;0.90;;;4.70;82.70;;;;;;4973159;28;20842;-76
2021/04/03 16:37:52;;;;;;;1.40;0.80;;;4.70;81.60;;;;;;4972483;28;20193;-76
2021/04/03 16:40:19;;;;;;;4.73;0.90;;;4.70;84.80;;;;;;4972711;28;20918;-76
2021/04/03 16:42:44;;;;;;;2.73;1.00;;;4.70;84.00;;;;;;4971632;28;20621;-76
2021/04/03 16:45:10;;;;;;;1.30;0.80;;;4.70;83.90;;;;;;4973102;28;20417;-76
2021/04/03 16:47:36;;;;;;;1.23;0.73;;;4.70;83.90;;;;;;4972568;28;20213;-76
2021/04/03 16:50:03;;;;;;;1.83;0.80;;;4.50;84.30;;;;;;4973032;28;20820;-76
2021/04/03 16:52:29;;;;;;;2.40;0.90;;;4.40;84.70;;;;;;4972941;28;20202;-76